Lushton, Nebraska
Current Conditions -  °F | °C
As of 4:35 PM on Friday 19 Dec 2014 (Local Time) from KJYR Reporting Station
Haze Haze  
Wind Chill: 23°   Ceiling: 800
Heat Index: 32°   Visibility: 5mi
Dew Point: 32°   Wind: 12mph
Humidity: 100%   Direction: 220°SW
Pressure: 30.1"   Gusts: NA
Location:  40.7857°N, 97.7689°W
Report Text: KJYR 192235Z AUTO 22010KT 5SM BR OVC008 00/00 A3010 RMK AO2
Loading
Personal Weather Stations






























Interactive Weather Map New forecast layout! Learn more

10-Day Weather Forecast

Advertisements
Track Severe Weather on mobile